Portada
METAR-TAF:

METAR-TAF

Aeroports :

Derby, Austràlia

latitud: 17-34-53S, longitud: 123-49-42E, altitud: 91 m

Observació

L'informe es va fer fa 28 minuts, a les 13:30 UTC
Vent 8 kt del Sud-Est
Temperatura 22°C
Humitat 25%
Pressió 1012 hPa
Visibilitat 10 km o més

METAR: YCIN 141330Z AUTO 13008KT 9999 // NCD 22/01 Q1012 RF00.0/000.0

Hora: 21:58 (13:58 UTC)

Pronòstic

L'informe es va fer fa 1 hora i 44 minuts, a les 12:14 UTC
Pronòstic vàlid del 14 a les 14 UTC al 15 a les 02 UTC
Vent 7 kt del Sud-Est
Visibilitat 10 km o més
sense núvols per sota de 1500 mi sense presència de cumulonimbus.
A partir de les 14 a les 2000 UTC
Vent 12 kt del Est/Sud-Est
Visibilitat 10 km o més
sense núvols per sota de 1500 mi sense presència de cumulonimbus.

TAF: YCIN 141214Z 1414/1502 14007KT CAVOK FM142000 12012KT CAVOK

Observacions i pronòstics meteorològics de més de 4000 aeroports (METAR i TAF).

Les estacions disponibles són els punts grocs i vermells al mapa.

Posi el ratolí al punt desitjat per veure el nom de l'estació.

Feu clic per veure les observacions i els pronòstics meteorològics.

Per canviar el mapa: feu clic els botons verds amb una creu de color negre per apropar; al botó verd amb un guió per allunyar la imatge; o en les fletxes verdes per a mapes adjacents.


METAR-TAF: